createdAt,value
2022-11-16T00:00:04.320Z,4.80
2022-11-16T00:03:08.818Z,4.75
2022-11-16T00:06:13.558Z,3.53
2022-11-16T00:09:29.322Z,3.72
2022-11-16T00:12:32.433Z,4.43
2022-11-16T00:15:35.434Z,5.10
2022-11-16T00:18:38.611Z,6.45
2022-11-16T00:21:41.685Z,10.43
2022-11-16T00:24:44.732Z,14.20
2022-11-16T00:27:48.207Z,15.25
2022-11-16T00:30:59.813Z,17.10
2022-11-16T00:34:02.880Z,19.15
2022-11-16T00:37:05.942Z,20.60
2022-11-16T00:40:09.573Z,28.00
2022-11-16T00:43:12.652Z,26.63
2022-11-16T00:46:15.829Z,26.77
2022-11-16T00:49:19.128Z,27.48
2022-11-16T00:52:22.581Z,33.78
2022-11-16T00:55:25.555Z,30.15
2022-11-16T00:58:29.028Z,31.65
2022-11-16T01:01:38.358Z,30.98
2022-11-16T01:04:42.812Z,29.23
2022-11-16T01:07:45.972Z,28.90
2022-11-16T01:10:49.006Z,29.70
2022-11-16T01:13:52.630Z,29.35
2022-11-16T01:16:55.967Z,31.48
2022-11-16T01:19:59.027Z,30.58
2022-11-16T01:23:02.206Z,28.95
2022-11-16T01:26:05.390Z,31.75
2022-11-16T01:29:11.178Z,36.05
2022-11-16T01:32:18.573Z,41.58
2022-11-16T01:35:22.321Z,33.17
2022-11-16T01:38:29.513Z,29.38
2022-11-16T01:41:34.246Z,27.83
2022-11-16T01:44:40.707Z,28.58
2022-11-16T01:47:48.170Z,28.67
2022-11-16T01:50:57.630Z,29.42
2022-11-16T01:54:03.404Z,32.88
2022-11-16T01:57:11.130Z,46.13
2022-11-16T02:00:24.003Z,36.50
2022-11-16T02:03:40.236Z,26.90
2022-11-16T02:07:09.638Z,29.85
2022-11-16T02:10:19.712Z,28.30
2022-11-16T02:13:29.118Z,26.10
2022-11-16T02:16:57.496Z,26.45
2022-11-16T02:20:34.590Z,24.23
2022-11-16T02:23:57.218Z,26.08
2022-11-16T02:27:39.578Z,22.38
2022-11-16T02:30:47.734Z,23.42
2022-11-16T02:33:53.737Z,25.27
2022-11-16T02:37:02.457Z,22.45
2022-11-16T02:40:10.033Z,23.83
2022-11-16T02:43:18.804Z,19.17
2022-11-16T02:46:27.902Z,19.60
2022-11-16T02:49:34.340Z,27.85
2022-11-16T02:52:39.380Z,27.88
2022-11-16T02:55:45.351Z,28.75
2022-11-16T02:58:49.035Z,30.80
2022-11-16T03:02:23.670Z,31.13
2022-11-16T03:05:45.066Z,34.13
2022-11-16T03:09:10.717Z,29.60
2022-11-16T03:12:17.463Z,24.13
2022-11-16T03:15:20.828Z,13.73
2022-11-16T03:18:29.650Z,9.65
2022-11-16T03:21:53.420Z,7.47
2022-11-16T03:24:56.910Z,6.43
2022-11-16T03:28:04.512Z,6.37
2022-11-16T03:31:22.371Z,6.07
2022-11-16T03:34:31.988Z,6.25
2022-11-16T03:37:36.724Z,6.47
2022-11-16T03:40:41.561Z,6.45
2022-11-16T03:43:45.592Z,5.10
2022-11-16T03:46:49.704Z,5.88
2022-11-16T03:49:52.990Z,6.00
2022-11-16T03:52:56.629Z,6.35
2022-11-16T03:55:59.878Z,8.88
2022-11-16T03:59:04.347Z,11.82
2022-11-16T04:02:07.773Z,8.10
2022-11-16T04:05:29.413Z,10.55
2022-11-16T04:08:51.445Z,14.27
2022-11-16T04:12:13.243Z,24.70
2022-11-16T04:15:36.267Z,25.13
2022-11-16T04:18:58.013Z,27.23
2022-11-16T04:22:24.515Z,28.38
2022-11-16T04:25:35.295Z,26.20
2022-11-16T04:28:38.903Z,24.65
2022-11-16T04:32:00.456Z,25.50
2022-11-16T04:35:22.588Z,20.70
2022-11-16T04:38:25.661Z,18.90
2022-11-16T04:41:49.550Z,3.88
2022-11-16T04:45:11.361Z,2.70
2022-11-16T04:48:22.587Z,3.40
2022-11-16T04:51:29.117Z,3.00
2022-11-16T04:54:32.375Z,4.30
2022-11-16T04:57:35.562Z,4.07
2022-11-16T05:00:41.629Z,4.60
2022-11-16T05:03:46.232Z,5.55
2022-11-16T05:06:49.705Z,7.10
2022-11-16T05:09:53.160Z,5.43
2022-11-16T05:12:56.661Z,6.00
2022-11-16T05:16:01.088Z,7.55
2022-11-16T05:19:23.179Z,7.90
2022-11-16T05:22:27.002Z,8.15
2022-11-16T05:25:36.137Z,8.18
2022-11-16T05:28:42.605Z,7.72
2022-11-16T05:31:48.091Z,7.70
2022-11-16T05:34:51.325Z,6.78
2022-11-16T05:37:54.461Z,5.78
2022-11-16T05:40:58.584Z,5.67
2022-11-16T05:44:01.666Z,5.05
2022-11-16T05:47:04.689Z,5.40
2022-11-16T05:50:10.139Z,5.55
2022-11-16T05:53:16.669Z,5.28
2022-11-16T05:56:20.123Z,4.95
2022-11-16T05:59:24.499Z,4.70
2022-11-16T06:02:32.941Z,4.15
2022-11-16T06:05:40.410Z,4.78
2022-11-16T06:08:47.024Z,4.47
2022-11-16T06:11:55.372Z,5.00
2022-11-16T06:14:58.422Z,4.72
2022-11-16T06:18:02.205Z,4.45
2022-11-16T06:21:06.409Z,5.43
2022-11-16T06:24:10.227Z,4.90
2022-11-16T06:27:13.509Z,4.82
2022-11-16T06:30:17.844Z,5.15
2022-11-16T06:33:21.354Z,5.22
2022-11-16T06:36:25.436Z,5.55
2022-11-16T06:39:29.044Z,5.15
2022-11-16T06:42:32.220Z,5.22
2022-11-16T06:45:36.969Z,5.40
2022-11-16T06:48:41.147Z,5.32
2022-11-16T06:51:48.230Z,5.30
2022-11-16T06:54:51.390Z,5.80
2022-11-16T06:57:54.574Z,6.40
2022-11-16T07:00:58.104Z,6.60
2022-11-16T07:04:01.592Z,7.28
2022-11-16T07:07:05.031Z,6.38
2022-11-16T07:10:11.119Z,6.40
2022-11-16T07:13:14.334Z,8.05
2022-11-16T07:16:17.763Z,9.65
2022-11-16T07:19:27.621Z,10.88
2022-11-16T07:22:30.998Z,14.32
2022-11-16T07:25:35.385Z,27.83
2022-11-16T07:28:44.898Z,31.02
2022-11-16T07:31:52.254Z,31.02
2022-11-16T07:35:15.317Z,31.42
2022-11-16T07:38:18.729Z,20.52
2022-11-16T07:41:22.115Z,11.95
2022-11-16T07:44:34.839Z,6.35
2022-11-16T07:47:42.613Z,5.57
2022-11-16T07:50:53.818Z,5.80
2022-11-16T07:53:57.827Z,5.63
2022-11-16T07:57:00.844Z,5.18
2022-11-16T08:00:06.422Z,5.35
2022-11-16T08:03:24.938Z,5.40
2022-11-16T08:06:33.333Z,4.63
2022-11-16T08:09:38.503Z,3.95
2022-11-16T08:12:41.946Z,3.10
2022-11-16T08:15:45.373Z,3.10
2022-11-16T08:18:49.229Z,3.40
2022-11-16T08:21:52.802Z,3.88
2022-11-16T08:24:56.517Z,3.78
2022-11-16T08:31:10.612Z,7.22
2022-11-16T08:34:14.550Z,6.22
2022-11-16T08:37:21.437Z,6.53
2022-11-16T08:40:24.712Z,6.85
2022-11-16T08:43:29.999Z,8.18
2022-11-16T08:46:33.107Z,17.33
2022-11-16T08:50:02.035Z,25.75
2022-11-16T08:53:06.623Z,18.23
2022-11-16T08:56:14.306Z,15.45
2022-11-16T08:59:18.122Z,14.90
2022-11-16T09:02:28.534Z,12.35
2022-11-16T09:05:31.928Z,11.02
2022-11-16T09:08:36.837Z,11.15
2022-11-16T09:11:40.227Z,10.52
2022-11-16T09:14:43.426Z,12.30
2022-11-16T09:17:46.644Z,12.32
2022-11-16T09:20:49.652Z,12.73
2022-11-16T09:23:53.710Z,13.65
2022-11-16T09:27:01.551Z,16.90
2022-11-16T09:30:06.112Z,17.70
2022-11-16T09:33:09.870Z,22.60
2022-11-16T09:36:12.984Z,42.45
2022-11-16T09:39:32.166Z,50.22
2022-11-16T09:43:03.670Z,35.72
2022-11-16T09:46:13.851Z,17.25
2022-11-16T09:49:25.013Z,12.93
2022-11-16T09:52:37.669Z,9.10
2022-11-16T09:55:51.638Z,8.38
2022-11-16T09:59:15.021Z,6.93
2022-11-16T10:02:37.739Z,7.65
2022-11-16T10:06:12.484Z,6.43
2022-11-16T10:09:15.609Z,6.80
2022-11-16T10:12:37.331Z,8.50
2022-11-16T10:15:46.691Z,13.57
2022-11-16T10:19:21.888Z,19.60
2022-11-16T10:22:46.228Z,18.55
2022-11-16T10:25:59.417Z,29.52
2022-11-16T10:29:21.521Z,38.33
2022-11-16T10:32:36.926Z,29.95
2022-11-16T10:35:47.533Z,12.38
2022-11-16T10:38:52.313Z,9.43
2022-11-16T10:41:58.776Z,7.00
2022-11-16T10:45:33.863Z,9.00
2022-11-16T10:48:49.373Z,8.05
2022-11-16T10:51:52.480Z,6.68
2022-11-16T10:54:56.588Z,6.72
2022-11-16T10:58:05.646Z,6.35
2022-11-16T11:01:12.711Z,5.70
2022-11-16T11:04:26.090Z,5.25
2022-11-16T11:07:36.088Z,4.30
2022-11-16T11:10:41.864Z,4.78
2022-11-16T11:13:44.850Z,5.55
2022-11-16T11:16:53.839Z,39.70
2022-11-16T11:20:05.033Z,55.88
2022-11-16T11:23:23.143Z,60.15
2022-11-16T11:26:36.258Z,74.13
2022-11-16T11:29:43.022Z,103.55
2022-11-16T11:32:46.491Z,84.35
2022-11-16T11:36:05.888Z,80.03
2022-11-16T11:39:29.098Z,72.30
2022-11-16T11:42:32.123Z,70.32
2022-11-16T11:45:54.837Z,40.42
2022-11-16T11:49:05.792Z,35.63
2022-11-16T11:52:35.146Z,30.95
2022-11-16T11:55:39.961Z,27.67
2022-11-16T11:58:44.340Z,26.63
2022-11-16T12:02:21.223Z,24.10
2022-11-16T12:05:49.173Z,24.42
2022-11-16T12:09:07.298Z,24.38
2022-11-16T12:12:42.846Z,31.58
2022-11-16T12:15:58.839Z,26.75
2022-11-16T12:19:39.408Z,24.45
2022-11-16T12:23:04.016Z,24.30
2022-11-16T12:26:45.578Z,13.38
2022-11-16T12:30:03.505Z,11.25
2022-11-16T12:33:31.716Z,9.63
2022-11-16T12:36:59.418Z,20.17
2022-11-16T12:40:24.249Z,23.13
2022-11-16T12:43:36.778Z,22.27
2022-11-16T12:46:45.515Z,20.92
2022-11-16T12:49:55.477Z,21.70
2022-11-16T12:53:36.030Z,21.92
2022-11-16T12:56:53.646Z,22.23
2022-11-16T13:00:08.302Z,23.77
2022-11-16T13:03:40.153Z,26.00
2022-11-16T13:06:59.010Z,27.05
2022-11-16T13:10:14.366Z,33.08
2022-11-16T13:13:41.898Z,36.03
2022-11-16T13:16:46.884Z,33.13
2022-11-16T13:20:30.475Z,28.75
2022-11-16T13:23:36.678Z,33.70
2022-11-16T13:26:50.465Z,34.05
2022-11-16T13:30:20.239Z,26.90
2022-11-16T13:34:15.326Z,25.63
2022-11-16T13:37:40.425Z,25.50
2022-11-16T13:40:43.910Z,25.75
2022-11-16T13:43:50.799Z,25.60
2022-11-16T13:47:06.812Z,23.55
2022-11-16T13:50:20.599Z,28.55
2022-11-16T13:54:43.265Z,32.40
2022-11-16T13:57:01.300Z,33.38
2022-11-16T14:00:05.702Z,38.47
2022-11-16T14:03:18.094Z,33.97
2022-11-16T14:06:21.237Z,37.58
2022-11-16T14:09:46.504Z,38.47
2022-11-16T14:12:56.596Z,43.03
2022-11-16T14:16:20.640Z,49.97
2022-11-16T14:19:42.135Z,51.00
2022-11-16T14:23:13.266Z,60.42
2022-11-16T14:26:48.071Z,47.15
2022-11-16T14:30:05.764Z,42.53
2022-11-16T14:33:15.837Z,38.75
2022-11-16T14:36:32.901Z,41.70
2022-11-16T14:39:43.608Z,43.72
2022-11-16T14:43:16.554Z,45.17
2022-11-16T14:46:28.825Z,37.42
2022-11-16T14:49:35.870Z,31.83
2022-11-16T14:52:48.232Z,25.55
2022-11-16T14:55:51.287Z,33.50
2022-11-16T14:59:01.074Z,26.55
2022-11-16T15:02:16.940Z,24.80
2022-11-16T15:05:23.003Z,23.75
2022-11-16T15:08:47.919Z,22.70
2022-11-16T15:12:10.469Z,19.67
2022-11-16T15:15:13.491Z,24.00
2022-11-16T15:18:22.695Z,26.15
2022-11-16T15:21:26.333Z,19.95
2022-11-16T15:24:32.343Z,20.65
2022-11-16T15:27:43.333Z,20.23
2022-11-16T15:30:50.916Z,22.38
2022-11-16T15:33:54.167Z,21.90
2022-11-16T15:36:57.236Z,19.35
2022-11-16T15:40:02.003Z,18.50
2022-11-16T15:46:09.652Z,16.90
2022-11-16T15:49:38.960Z,17.75
2022-11-16T15:52:44.393Z,14.35
2022-11-16T15:55:50.937Z,14.25
2022-11-16T15:58:55.844Z,15.38
2022-11-16T16:01:59.078Z,17.83
2022-11-16T16:05:02.067Z,20.42
2022-11-16T16:08:06.335Z,21.92
2022-11-16T16:11:21.412Z,11.13
2022-11-16T16:14:30.807Z,17.42
2022-11-16T16:17:33.836Z,16.33
2022-11-16T16:20:37.318Z,16.58
2022-11-16T16:23:49.262Z,13.80
2022-11-16T16:26:53.619Z,15.50
2022-11-16T16:29:58.479Z,16.05
2022-11-16T16:36:08.249Z,14.27
2022-11-16T16:39:11.409Z,12.63
2022-11-16T16:42:17.505Z,13.43
2022-11-16T16:45:31.657Z,12.60
2022-11-16T16:48:34.988Z,10.48
2022-11-16T16:51:38.110Z,11.13
2022-11-16T16:54:41.716Z,12.40
2022-11-16T16:57:45.043Z,9.90
2022-11-16T17:00:48.390Z,11.95
2022-11-16T17:03:51.621Z,12.00
2022-11-16T17:06:54.939Z,10.68
2022-11-16T17:09:58.092Z,13.75
2022-11-16T17:13:03.786Z,11.57
2022-11-16T17:16:08.180Z,11.60
2022-11-16T17:19:11.234Z,12.13
2022-11-16T17:22:15.534Z,18.45
2022-11-16T17:25:18.721Z,15.50
2022-11-16T17:28:23.218Z,12.40
2022-11-16T17:31:28.519Z,13.00
2022-11-16T17:34:32.340Z,7.25
2022-11-16T17:37:35.412Z,10.00
2022-11-16T17:40:38.388Z,10.15
2022-11-16T17:43:42.864Z,7.90
2022-11-16T17:46:46.189Z,9.40
2022-11-16T17:49:51.071Z,10.80
2022-11-16T17:52:54.172Z,7.95
2022-11-16T17:55:57.243Z,5.30
2022-11-16T17:59:00.446Z,6.78
2022-11-16T18:02:03.479Z,7.90
2022-11-16T18:05:06.781Z,7.95
2022-11-16T18:08:10.330Z,10.15
2022-11-16T18:11:17.574Z,7.95
2022-11-16T18:14:20.861Z,9.52
2022-11-16T18:17:24.153Z,9.10
2022-11-16T18:20:28.330Z,9.32
2022-11-16T18:23:32.081Z,6.38
2022-11-16T18:26:35.370Z,6.47
2022-11-16T18:29:38.435Z,7.70
2022-11-16T18:32:42.623Z,8.23
2022-11-16T18:35:45.854Z,7.22
2022-11-16T18:38:49.225Z,7.68
2022-11-16T18:41:55.277Z,7.43
2022-11-16T18:44:58.528Z,7.40
2022-11-16T18:48:01.652Z,6.88
2022-11-16T18:51:05.771Z,8.07
2022-11-16T18:54:09.335Z,8.07
2022-11-16T18:57:12.376Z,7.40
2022-11-16T19:00:16.449Z,7.20
2022-11-16T19:03:19.614Z,6.82
2022-11-16T19:06:23.770Z,5.70
2022-11-16T19:09:26.825Z,7.00
2022-11-16T19:12:30.145Z,7.07
2022-11-16T19:15:34.622Z,5.93
2022-11-16T19:18:38.879Z,6.22
2022-11-16T19:21:42.442Z,4.95
2022-11-16T19:24:45.526Z,5.00
2022-11-16T19:27:48.504Z,5.38
2022-11-16T19:30:51.566Z,4.88
2022-11-16T19:34:06.111Z,4.95
2022-11-16T19:37:09.261Z,5.05
2022-11-16T19:40:12.885Z,4.13
2022-11-16T19:43:15.955Z,4.28
2022-11-16T19:46:25.336Z,3.53
2022-11-16T19:49:28.291Z,3.90
2022-11-16T19:52:31.316Z,3.97
2022-11-16T19:55:34.787Z,4.40
2022-11-16T19:58:39.115Z,5.28
2022-11-16T20:01:42.174Z,4.97
2022-11-16T20:04:45.425Z,4.70
2022-11-16T20:07:49.874Z,5.82
2022-11-16T20:10:52.903Z,4.22
2022-11-16T20:13:57.683Z,5.18
2022-11-16T20:20:03.563Z,6.43
2022-11-16T20:23:06.637Z,6.50
2022-11-16T20:26:11.623Z,5.97
2022-11-16T20:29:16.321Z,8.70
2022-11-16T20:32:19.622Z,9.68
2022-11-16T20:35:22.764Z,5.40
2022-11-16T20:38:25.676Z,6.80
2022-11-16T20:41:31.265Z,6.25
2022-11-16T20:44:35.894Z,11.43
2022-11-16T20:47:38.898Z,7.20
2022-11-16T20:50:41.830Z,9.68
2022-11-16T20:53:46.768Z,7.10
2022-11-16T20:56:50.988Z,7.18
2022-11-16T20:59:54.008Z,6.07
2022-11-16T21:02:57.070Z,5.68
2022-11-16T21:06:00.612Z,4.75
2022-11-16T21:09:05.275Z,5.38
2022-11-16T21:12:27.487Z,4.22
2022-11-16T21:15:30.663Z,4.97
2022-11-16T21:18:33.998Z,5.78
2022-11-16T21:21:38.617Z,5.50
2022-11-16T21:24:41.677Z,6.32
2022-11-16T21:27:44.773Z,9.30
2022-11-16T21:31:02.704Z,9.50
2022-11-16T21:34:06.699Z,9.95
2022-11-16T21:37:09.852Z,11.45
2022-11-16T21:40:13.618Z,9.35
2022-11-16T21:43:17.053Z,8.95
2022-11-16T21:46:25.681Z,9.68
2022-11-16T21:49:28.670Z,8.85
2022-11-16T21:52:31.608Z,8.63
2022-11-16T21:55:35.040Z,8.20
2022-11-16T21:58:39.645Z,10.30
2022-11-16T22:02:00.970Z,7.75
2022-11-16T22:05:23.174Z,6.40
2022-11-16T22:08:26.238Z,5.50
2022-11-16T22:11:29.616Z,6.30
2022-11-16T22:14:32.574Z,6.78
2022-11-16T22:17:35.765Z,7.50
2022-11-16T22:20:38.848Z,6.35
2022-11-16T22:23:42.104Z,6.13
2022-11-16T22:26:45.339Z,6.57
2022-11-16T22:29:48.392Z,5.70
2022-11-16T22:32:51.396Z,6.90
2022-11-16T22:35:54.455Z,7.00
2022-11-16T22:38:57.890Z,7.18
2022-11-16T22:42:00.981Z,7.13
2022-11-16T22:45:04.503Z,6.93
2022-11-16T22:48:07.486Z,6.70
2022-11-16T22:51:20.442Z,6.72
2022-11-16T22:54:28.462Z,6.25
2022-11-16T22:57:31.949Z,9.88
2022-11-16T23:00:40.560Z,8.82
2022-11-16T23:03:45.245Z,20.25
2022-11-16T23:06:48.516Z,6.88
2022-11-16T23:09:51.520Z,5.57
2022-11-16T23:13:13.163Z,12.55
2022-11-16T23:16:16.132Z,9.88
2022-11-16T23:19:39.245Z,14.43
2022-11-16T23:23:00.682Z,9.68
2022-11-16T23:26:28.092Z,9.30
2022-11-16T23:29:31.279Z,9.13
2022-11-16T23:32:34.445Z,7.25
2022-11-16T23:35:37.633Z,6.50
2022-11-16T23:38:41.278Z,6.20
2022-11-16T23:42:02.765Z,5.57
2022-11-16T23:45:06.114Z,4.18
2022-11-16T23:48:10.556Z,3.85
2022-11-16T23:51:13.538Z,3.10
2022-11-16T23:54:16.532Z,2.53
2022-11-16T23:57:19.564Z,3.35
